sensor_id;sensor_type;location;lat;lon;timestamp;pressure;altitude;pressure_sealevel;temperature;humidity
19508;BME280;40157;42.566;27.526;2023-02-16T00:01:16;102452.88;;;4.08;70.24
19508;BME280;40157;42.566;27.526;2023-02-16T00:03:19;102476.56;;;4.13;69.97
19508;BME280;40157;42.566;27.526;2023-02-16T00:05:23;102468.56;;;4.10;69.80
19508;BME280;40157;42.566;27.526;2023-02-16T00:07:24;102445.69;;;3.93;69.36
19508;BME280;40157;42.566;27.526;2023-02-16T00:09:24;102397.59;;;3.61;69.29
19508;BME280;40157;42.566;27.526;2023-02-16T00:11:33;102472.31;;;4.02;69.39
19508;BME280;40157;42.566;27.526;2023-02-16T00:13:52;102462.47;;;3.98;69.49
19508;BME280;40157;42.566;27.526;2023-02-16T00:15:53;102467.66;;;3.98;69.57
19508;BME280;40157;42.566;27.526;2023-02-16T00:17:54;102454.63;;;3.84;69.82
19508;BME280;40157;42.566;27.526;2023-02-16T00:19:56;102473.09;;;3.89;69.75
19508;BME280;40157;42.566;27.526;2023-02-16T00:21:58;102443.59;;;3.75;69.89
19508;BME280;40157;42.566;27.526;2023-02-16T00:23:58;102427.59;;;3.69;70.32
19508;BME280;40157;42.566;27.526;2023-02-16T00:25:59;102469.97;;;3.93;70.92
19508;BME280;40157;42.566;27.526;2023-02-16T00:28:02;102446.53;;;3.80;71.03
19508;BME280;40157;42.566;27.526;2023-02-16T00:30:18;102459.13;;;3.87;70.85
19508;BME280;40157;42.566;27.526;2023-02-16T00:32:19;102444.16;;;3.59;71.52
19508;BME280;40157;42.566;27.526;2023-02-16T00:34:40;102458.59;;;3.67;71.55
19508;BME280;40157;42.566;27.526;2023-02-16T00:36:40;102435.94;;;3.65;71.15
19508;BME280;40157;42.566;27.526;2023-02-16T00:38:41;102436.06;;;3.66;70.99
19508;BME280;40157;42.566;27.526;2023-02-16T00:40:41;102453.28;;;3.78;70.70
19508;BME280;40157;42.566;27.526;2023-02-16T00:42:44;102375.31;;;3.39;70.29
19508;BME280;40157;42.566;27.526;2023-02-16T00:44:50;102432.00;;;3.70;69.93
19508;BME280;40157;42.566;27.526;2023-02-16T00:46:51;102458.13;;;3.85;70.02
19508;BME280;40157;42.566;27.526;2023-02-16T00:48:52;102425.13;;;3.59;69.34
19508;BME280;40157;42.566;27.526;2023-02-16T00:50:52;102460.59;;;3.83;69.20
19508;BME280;40157;42.566;27.526;2023-02-16T00:52:53;102456.31;;;3.84;68.79
19508;BME280;40157;42.566;27.526;2023-02-16T00:54:57;102424.75;;;3.66;68.26
19508;BME280;40157;42.566;27.526;2023-02-16T00:56:57;102411.72;;;3.52;67.90
19508;BME280;40157;42.566;27.526;2023-02-16T00:58:59;102442.72;;;3.51;67.62
19508;BME280;40157;42.566;27.526;2023-02-16T01:01:13;102457.16;;;3.47;67.94
19508;BME280;40157;42.566;27.526;2023-02-16T01:03:17;102454.44;;;3.46;67.76
19508;BME280;40157;42.566;27.526;2023-02-16T01:05:18;102464.56;;;3.55;67.61
19508;BME280;40157;42.566;27.526;2023-02-16T01:07:19;102441.38;;;3.44;67.41
19508;BME280;40157;42.566;27.526;2023-02-16T01:09:38;102464.03;;;3.47;67.13
19508;BME280;40157;42.566;27.526;2023-02-16T01:11:57;102430.00;;;3.30;67.02
19508;BME280;40157;42.566;27.526;2023-02-16T01:13:58;102446.53;;;3.44;67.45
19508;BME280;40157;42.566;27.526;2023-02-16T01:15:58;102422.00;;;3.15;67.33
19508;BME280;40157;42.566;27.526;2023-02-16T01:17:59;102454.09;;;3.29;67.18
19508;BME280;40157;42.566;27.526;2023-02-16T01:20:00;102429.66;;;3.02;67.64
19508;BME280;40157;42.566;27.526;2023-02-16T01:22:00;102452.38;;;2.94;68.36
19508;BME280;40157;42.566;27.526;2023-02-16T01:24:01;102445.56;;;2.73;69.09
19508;BME280;40157;42.566;27.526;2023-02-16T01:26:01;102430.81;;;2.60;69.14
19508;BME280;40157;42.566;27.526;2023-02-16T01:28:07;102426.75;;;2.52;69.18
19508;BME280;40157;42.566;27.526;2023-02-16T01:30:16;102417.75;;;2.25;69.62
19508;BME280;40157;42.566;27.526;2023-02-16T01:32:17;102447.38;;;2.28;70.38
19508;BME280;40157;42.566;27.526;2023-02-16T01:34:17;102426.91;;;2.09;70.33
19508;BME280;40157;42.566;27.526;2023-02-16T01:36:28;102451.44;;;2.14;70.70
19508;BME280;40157;42.566;27.526;2023-02-16T01:38:30;102451.03;;;2.20;70.59
19508;BME280;40157;42.566;27.526;2023-02-16T01:42:45;102433.72;;;1.97;71.02
19508;BME280;40157;42.566;27.526;2023-02-16T01:44:55;102452.06;;;2.00;71.46
19508;BME280;40157;42.566;27.526;2023-02-16T01:47:06;102415.31;;;1.82;71.75
19508;BME280;40157;42.566;27.526;2023-02-16T01:49:17;102398.81;;;1.70;71.97
19508;BME280;40157;42.566;27.526;2023-02-16T01:51:25;102444.19;;;1.98;71.88
19508;BME280;40157;42.566;27.526;2023-02-16T01:53:36;102440.16;;;2.02;71.75
19508;BME280;40157;42.566;27.526;2023-02-16T01:55:43;102428.41;;;1.95;71.78
19508;BME280;40157;42.566;27.526;2023-02-16T01:57:51;102442.00;;;2.15;71.27
19508;BME280;40157;42.566;27.526;2023-02-16T02:01:57;102437.94;;;2.07;70.98
19508;BME280;40157;42.566;27.526;2023-02-16T02:03:59;102435.63;;;1.99;71.34
19508;BME280;40157;42.566;27.526;2023-02-16T02:06:21;102441.03;;;2.02;71.52
19508;BME280;40157;42.566;27.526;2023-02-16T02:08:37;102437.75;;;1.93;72.03
19508;BME280;40157;42.566;27.526;2023-02-16T02:10:53;102418.97;;;1.74;72.41
19508;BME280;40157;42.566;27.526;2023-02-16T02:13:21;102445.31;;;1.80;72.37
19508;BME280;40157;42.566;27.526;2023-02-16T02:15:27;102423.69;;;1.57;72.43
19508;BME280;40157;42.566;27.526;2023-02-16T02:17:29;102436.06;;;1.61;71.97
19508;BME280;40157;42.566;27.526;2023-02-16T02:19:31;102445.13;;;1.56;72.36
19508;BME280;40157;42.566;27.526;2023-02-16T02:29:48;102442.13;;;1.29;73.28
19508;BME280;40157;42.566;27.526;2023-02-16T02:34:28;102436.44;;;1.34;74.19
19508;BME280;40157;42.566;27.526;2023-02-16T02:36:37;102440.81;;;1.35;74.33
19508;BME280;40157;42.566;27.526;2023-02-16T02:43:26;102418.81;;;1.40;74.39
19508;BME280;40157;42.566;27.526;2023-02-16T02:45:33;102427.28;;;1.59;74.23
19508;BME280;40157;42.566;27.526;2023-02-16T02:47:37;102425.59;;;1.70;74.00
19508;BME280;40157;42.566;27.526;2023-02-16T02:49:38;102417.41;;;1.76;73.39
19508;BME280;40157;42.566;27.526;2023-02-16T02:51:38;102402.00;;;1.77;73.49
19508;BME280;40157;42.566;27.526;2023-02-16T02:53:52;102403.63;;;1.87;73.26
19508;BME280;40157;42.566;27.526;2023-02-16T02:56:15;102439.06;;;2.10;72.32
19508;BME280;40157;42.566;27.526;2023-02-16T02:58:35;102345.84;;;1.64;71.38
19508;BME280;40157;42.566;27.526;2023-02-16T03:00:55;102428.28;;;2.16;71.11
19508;BME280;40157;42.566;27.526;2023-02-16T03:05:21;102440.38;;;2.27;70.71
19508;BME280;40157;42.566;27.526;2023-02-16T03:07:22;102427.69;;;2.30;70.67
19508;BME280;40157;42.566;27.526;2023-02-16T03:09:44;102422.50;;;2.30;70.36
19508;BME280;40157;42.566;27.526;2023-02-16T03:11:45;102429.19;;;2.38;70.15
19508;BME280;40157;42.566;27.526;2023-02-16T03:14:16;102429.47;;;2.31;70.39
19508;BME280;40157;42.566;27.526;2023-02-16T03:16:32;102421.25;;;2.25;70.51
19508;BME280;40157;42.566;27.526;2023-02-16T03:18:34;102434.19;;;2.25;70.35
19508;BME280;40157;42.566;27.526;2023-02-16T03:20:55;102435.31;;;2.29;70.26
19508;BME280;40157;42.566;27.526;2023-02-16T03:23:14;102417.84;;;2.26;70.18
19508;BME280;40157;42.566;27.526;2023-02-16T03:25:35;102432.38;;;2.24;70.38
19508;BME280;40157;42.566;27.526;2023-02-16T03:27:55;102434.19;;;2.25;70.21
19508;BME280;40157;42.566;27.526;2023-02-16T03:30:17;102426.31;;;2.24;70.11
19508;BME280;40157;42.566;27.526;2023-02-16T03:32:18;102430.03;;;2.27;70.14
19508;BME280;40157;42.566;27.526;2023-02-16T03:34:20;102427.00;;;2.33;69.74
19508;BME280;40157;42.566;27.526;2023-02-16T03:36:22;102440.06;;;2.34;70.00
19508;BME280;40157;42.566;27.526;2023-02-16T03:38:24;102439.81;;;2.31;70.02
19508;BME280;40157;42.566;27.526;2023-02-16T03:40:27;102447.81;;;2.34;69.88
19508;BME280;40157;42.566;27.526;2023-02-16T03:42:28;102443.66;;;2.36;69.79
19508;BME280;40157;42.566;27.526;2023-02-16T03:44:28;102423.34;;;2.19;69.99
19508;BME280;40157;42.566;27.526;2023-02-16T03:46:29;102398.00;;;2.15;69.72
19508;BME280;40157;42.566;27.526;2023-02-16T03:48:30;102429.94;;;2.37;70.17
19508;BME280;40157;42.566;27.526;2023-02-16T03:50:30;102413.41;;;2.35;69.90
19508;BME280;40157;42.566;27.526;2023-02-16T03:52:31;102443.72;;;2.48;70.03
19508;BME280;40157;42.566;27.526;2023-02-16T03:54:31;102424.00;;;2.38;69.99
19508;BME280;40157;42.566;27.526;2023-02-16T03:56:32;102423.69;;;2.46;70.33
19508;BME280;40157;42.566;27.526;2023-02-16T03:58:32;102416.91;;;2.48;70.52
19508;BME280;40157;42.566;27.526;2023-02-16T04:00:34;102437.78;;;2.61;69.85
19508;BME280;40157;42.566;27.526;2023-02-16T04:02:35;102390.13;;;2.35;69.87
19508;BME280;40157;42.566;27.526;2023-02-16T04:04:35;102426.19;;;2.56;70.06
19508;BME280;40157;42.566;27.526;2023-02-16T04:06:36;102428.00;;;2.57;69.63
19508;BME280;40157;42.566;27.526;2023-02-16T04:08:36;102444.00;;;2.63;69.90
19508;BME280;40157;42.566;27.526;2023-02-16T04:10:37;102451.22;;;2.67;69.52
19508;BME280;40157;42.566;27.526;2023-02-16T04:12:38;102439.69;;;2.52;70.15
19508;BME280;40157;42.566;27.526;2023-02-16T04:14:38;102439.19;;;2.46;70.26
19508;BME280;40157;42.566;27.526;2023-02-16T04:16:39;102432.63;;;2.27;70.42
19508;BME280;40157;42.566;27.526;2023-02-16T04:18:39;102444.66;;;2.04;71.60
19508;BME280;40157;42.566;27.526;2023-02-16T04:20:40;102400.44;;;1.79;71.65
19508;BME280;40157;42.566;27.526;2023-02-16T04:22:40;102404.72;;;1.79;71.74
19508;BME280;40157;42.566;27.526;2023-02-16T04:24:41;102430.88;;;1.94;71.77
19508;BME280;40157;42.566;27.526;2023-02-16T04:26:42;102442.25;;;1.96;72.09
19508;BME280;40157;42.566;27.526;2023-02-16T04:28:44;102400.88;;;1.74;72.02
19508;BME280;40157;42.566;27.526;2023-02-16T04:30:44;102403.91;;;1.58;72.22
19508;BME280;40157;42.566;27.526;2023-02-16T04:32:45;102437.47;;;1.68;72.36
19508;BME280;40157;42.566;27.526;2023-02-16T04:34:45;102431.56;;;1.59;72.67
19508;BME280;40157;42.566;27.526;2023-02-16T04:36:46;102405.31;;;1.32;72.93
19508;BME280;40157;42.566;27.526;2023-02-16T04:38:46;102461.44;;;1.55;73.19
19508;BME280;40157;42.566;27.526;2023-02-16T04:40:47;102448.31;;;1.42;73.59
19508;BME280;40157;42.566;27.526;2023-02-16T04:42:47;102411.53;;;1.24;73.95
19508;BME280;40157;42.566;27.526;2023-02-16T04:44:48;102441.88;;;1.37;73.92
19508;BME280;40157;42.566;27.526;2023-02-16T04:46:48;102460.94;;;1.49;74.07
19508;BME280;40157;42.566;27.526;2023-02-16T04:48:49;102455.50;;;1.46;74.32
19508;BME280;40157;42.566;27.526;2023-02-16T04:50:49;102425.41;;;1.46;73.92
19508;BME280;40157;42.566;27.526;2023-02-16T04:52:50;102459.72;;;1.66;73.88
19508;BME280;40157;42.566;27.526;2023-02-16T04:54:50;102379.66;;;1.13;73.81
19508;BME280;40157;42.566;27.526;2023-02-16T04:56:51;102459.63;;;1.54;74.19
19508;BME280;40157;42.566;27.526;2023-02-16T04:58:51;102461.91;;;1.61;73.95
19508;BME280;40157;42.566;27.526;2023-02-16T05:00:51;102457.28;;;1.57;74.26
19508;BME280;40157;42.566;27.526;2023-02-16T05:02:52;102385.03;;;1.26;73.85
19508;BME280;40157;42.566;27.526;2023-02-16T05:04:52;102435.28;;;1.62;73.61
19508;BME280;40157;42.566;27.526;2023-02-16T05:06:53;102447.66;;;1.77;73.68
19508;BME280;40157;42.566;27.526;2023-02-16T05:08:53;102467.41;;;1.87;72.99
19508;BME280;40157;42.566;27.526;2023-02-16T05:10:54;102453.06;;;1.80;72.92
19508;BME280;40157;42.566;27.526;2023-02-16T05:13:13;102448.44;;;1.76;72.68
19508;BME280;40157;42.566;27.526;2023-02-16T05:15:32;102481.94;;;1.96;72.75
19508;BME280;40157;42.566;27.526;2023-02-16T05:17:32;102465.78;;;1.66;72.38
19508;BME280;40157;42.566;27.526;2023-02-16T05:19:33;102458.56;;;1.62;72.51
19508;BME280;40157;42.566;27.526;2023-02-16T05:21:33;102491.06;;;1.81;72.94
19508;BME280;40157;42.566;27.526;2023-02-16T05:23:34;102438.94;;;1.54;72.18
19508;BME280;40157;42.566;27.526;2023-02-16T05:25:35;102441.03;;;1.58;71.80
19508;BME280;40157;42.566;27.526;2023-02-16T05:27:35;102487.59;;;1.80;72.16
19508;BME280;40157;42.566;27.526;2023-02-16T05:29:36;102493.59;;;1.91;71.77
19508;BME280;40157;42.566;27.526;2023-02-16T05:31:37;102467.53;;;1.78;71.46
19508;BME280;40157;42.566;27.526;2023-02-16T05:33:37;102480.59;;;1.79;71.71
19508;BME280;40157;42.566;27.526;2023-02-16T05:35:39;102467.22;;;1.63;71.59
19508;BME280;40157;42.566;27.526;2023-02-16T05:37:39;102491.00;;;1.91;71.73
19508;BME280;40157;42.566;27.526;2023-02-16T05:39:40;102488.03;;;3.56;90.10
19508;BME280;40157;42.566;27.526;2023-02-16T05:41:40;102500.16;;;4.92;95.92
19508;BME280;40157;42.566;27.526;2023-02-16T05:43:40;102507.16;;;5.06;94.16
19508;BME280;40157;42.566;27.526;2023-02-16T05:45:41;102512.41;;;4.81;89.53
19508;BME280;40157;42.566;27.526;2023-02-16T05:47:41;102521.13;;;4.56;84.96
19508;BME280;40157;42.566;27.526;2023-02-16T05:49:42;102515.97;;;4.33;81.69
19508;BME280;40157;42.566;27.526;2023-02-16T05:51:42;102523.25;;;4.25;77.96
19508;BME280;40157;42.566;27.526;2023-02-16T05:53:43;102512.31;;;4.17;75.12
19508;BME280;40157;42.566;27.526;2023-02-16T05:55:44;102513.47;;;4.09;73.58
19508;BME280;40157;42.566;27.526;2023-02-16T05:57:44;102501.94;;;4.17;73.88
19508;BME280;40157;42.566;27.526;2023-02-16T05:59:45;102528.13;;;4.20;71.89
19508;BME280;40157;42.566;27.526;2023-02-16T06:01:45;102533.31;;;4.20;71.12
19508;BME280;40157;42.566;27.526;2023-02-16T06:03:48;102520.69;;;4.13;70.75
19508;BME280;40157;42.566;27.526;2023-02-16T06:05:55;102515.97;;;3.84;69.30
19508;BME280;40157;42.566;27.526;2023-02-16T06:07:56;102521.84;;;3.81;69.13
19508;BME280;40157;42.566;27.526;2023-02-16T06:09:56;102501.78;;;3.67;69.39
19508;BME280;40157;42.566;27.526;2023-02-16T06:11:57;102512.41;;;3.58;69.16
19508;BME280;40157;42.566;27.526;2023-02-16T06:13:58;102527.50;;;3.64;69.46
19508;BME280;40157;42.566;27.526;2023-02-16T06:15:59;102515.78;;;3.57;69.41
19508;BME280;40157;42.566;27.526;2023-02-16T06:17:59;102530.69;;;3.60;68.84
19508;BME280;40157;42.566;27.526;2023-02-16T06:20:00;102504.94;;;3.39;68.86
19508;BME280;40157;42.566;27.526;2023-02-16T06:22:00;102527.03;;;3.34;69.18
19508;BME280;40157;42.566;27.526;2023-02-16T06:24:01;102522.28;;;3.17;69.94
19508;BME280;40157;42.566;27.526;2023-02-16T06:26:01;102513.56;;;3.04;70.03
19508;BME280;40157;42.566;27.526;2023-02-16T06:28:02;102496.63;;;2.86;70.43
19508;BME280;40157;42.566;27.526;2023-02-16T06:30:03;102515.31;;;2.82;70.81
19508;BME280;40157;42.566;27.526;2023-02-16T06:32:05;102489.63;;;2.85;71.61
19508;BME280;40157;42.566;27.526;2023-02-16T06:34:05;102512.41;;;2.89;71.72
19508;BME280;40157;42.566;27.526;2023-02-16T06:36:06;102509.56;;;2.86;71.86
19508;BME280;40157;42.566;27.526;2023-02-16T06:38:07;102517.22;;;2.84;72.60
19508;BME280;40157;42.566;27.526;2023-02-16T06:40:08;102520.91;;;2.76;72.55
19508;BME280;40157;42.566;27.526;2023-02-16T06:42:09;102521.03;;;2.77;73.14
19508;BME280;40157;42.566;27.526;2023-02-16T06:44:12;102528.81;;;2.77;73.00
19508;BME280;40157;42.566;27.526;2023-02-16T06:46:13;102535.47;;;2.86;73.37
19508;BME280;40157;42.566;27.526;2023-02-16T06:48:14;102490.16;;;2.69;73.02
19508;BME280;40157;42.566;27.526;2023-02-16T06:50:15;102520.31;;;3.02;73.05
19508;BME280;40157;42.566;27.526;2023-02-16T06:52:16;102527.13;;;3.24;73.07
19508;BME280;40157;42.566;27.526;2023-02-16T06:54:17;102473.69;;;3.02;72.20
19508;BME280;40157;42.566;27.526;2023-02-16T06:56:18;102531.09;;;3.42;72.32
19508;BME280;40157;42.566;27.526;2023-02-16T06:58:18;102510.13;;;3.39;72.14
19508;BME280;40157;42.566;27.526;2023-02-16T07:00:19;102526.59;;;3.51;72.13
19508;BME280;40157;42.566;27.526;2023-02-16T07:02:20;102514.41;;;3.50;72.26
19508;BME280;40157;42.566;27.526;2023-02-16T07:04:20;102530.22;;;3.65;72.16
19508;BME280;40157;42.566;27.526;2023-02-16T07:06:25;102519.84;;;3.65;72.15
19508;BME280;40157;42.566;27.526;2023-02-16T07:08:26;102530.22;;;3.65;72.23
19508;BME280;40157;42.566;27.526;2023-02-16T07:10:27;102508.56;;;3.65;72.49
19508;BME280;40157;42.566;27.526;2023-02-16T07:12:27;102501.78;;;3.67;72.41
19508;BME280;40157;42.566;27.526;2023-02-16T07:14:29;102519.59;;;3.50;74.07
19508;BME280;40157;42.566;27.526;2023-02-16T07:16:30;102526.56;;;3.40;74.77
19508;BME280;40157;42.566;27.526;2023-02-16T07:18:32;102516.00;;;3.25;75.30
19508;BME280;40157;42.566;27.526;2023-02-16T07:20:32;102483.94;;;3.12;75.77
19508;BME280;40157;42.566;27.526;2023-02-16T07:22:33;102506.63;;;3.39;75.65
19508;BME280;40157;42.566;27.526;2023-02-16T07:24:33;102483.72;;;3.33;76.04
19508;BME280;40157;42.566;27.526;2023-02-16T07:26:34;102505.63;;;3.48;76.66
19508;BME280;40157;42.566;27.526;2023-02-16T07:28:37;102496.97;;;3.60;76.45
19508;BME280;40157;42.566;27.526;2023-02-16T07:30:38;102472.72;;;3.47;76.22
19508;BME280;40157;42.566;27.526;2023-02-16T07:32:38;102501.44;;;3.86;76.85
19508;BME280;40157;42.566;27.526;2023-02-16T07:34:39;102499.75;;;3.86;76.64
19508;BME280;40157;42.566;27.526;2023-02-16T07:36:39;102502.63;;;4.03;77.09
19508;BME280;40157;42.566;27.526;2023-02-16T07:38:40;102501.72;;;4.14;77.06
19508;BME280;40157;42.566;27.526;2023-02-16T07:40:41;102498.78;;;4.21;76.76
19508;BME280;40157;42.566;27.526;2023-02-16T07:42:41;102486.56;;;4.20;76.76
19508;BME280;40157;42.566;27.526;2023-02-16T07:44:42;102461.56;;;4.09;75.72
19508;BME280;40157;42.566;27.526;2023-02-16T07:46:42;102501.19;;;4.43;75.82
19508;BME280;40157;42.566;27.526;2023-02-16T07:48:46;102510.88;;;4.46;74.02
19508;BME280;40157;42.566;27.526;2023-02-16T07:50:47;102500.91;;;4.52;73.80
19508;BME280;40157;42.566;27.526;2023-02-16T07:52:48;102498.91;;;4.48;73.75
19508;BME280;40157;42.566;27.526;2023-02-16T07:54:48;102504.34;;;4.64;73.26
19508;BME280;40157;42.566;27.526;2023-02-16T07:56:49;102459.63;;;4.43;73.33
19508;BME280;40157;42.566;27.526;2023-02-16T07:58:54;102471.97;;;4.59;72.70
19508;BME280;40157;42.566;27.526;2023-02-16T08:01:09;102492.44;;;4.80;71.92
19508;BME280;40157;42.566;27.526;2023-02-16T08:03:10;102490.63;;;4.79;70.81
19508;BME280;40157;42.566;27.526;2023-02-16T08:05:10;102503.66;;;4.92;70.68
19508;BME280;40157;42.566;27.526;2023-02-16T08:07:15;102466.13;;;4.75;69.74
19508;BME280;40157;42.566;27.526;2023-02-16T08:09:16;102506.06;;;5.03;69.24
19508;BME280;40157;42.566;27.526;2023-02-16T08:11:19;102506.00;;;5.14;68.96
19508;BME280;40157;42.566;27.526;2023-02-16T08:13:19;102482.31;;;5.10;69.04
19508;BME280;40157;42.566;27.526;2023-02-16T08:15:20;102514.94;;;5.31;68.89
19508;BME280;40157;42.566;27.526;2023-02-16T08:17:21;102480.94;;;5.28;68.37
19508;BME280;40157;42.566;27.526;2023-02-16T08:19:21;102497.63;;;5.45;68.47
19508;BME280;40157;42.566;27.526;2023-02-16T08:21:24;102465.13;;;5.38;68.64
19508;BME280;40157;42.566;27.526;2023-02-16T08:23:25;102444.31;;;5.38;68.14
19508;BME280;40157;42.566;27.526;2023-02-16T08:25:25;102393.31;;;5.14;68.12
19508;BME280;40157;42.566;27.526;2023-02-16T08:27:26;102489.91;;;5.87;68.14
19508;BME280;40157;42.566;27.526;2023-02-16T08:29:26;102494.94;;;5.97;68.44
19508;BME280;40157;42.566;27.526;2023-02-16T08:31:29;102471.50;;;5.97;68.69
19508;BME280;40157;42.566;27.526;2023-02-16T08:33:31;102490.88;;;6.16;68.40
19508;BME280;40157;42.566;27.526;2023-02-16T08:35:36;102464.38;;;5.95;68.31
19508;BME280;40157;42.566;27.526;2023-02-16T08:37:37;102452.06;;;6.05;67.94
19508;BME280;40157;42.566;27.526;2023-02-16T08:39:38;102387.91;;;5.79;67.48
19508;BME280;40157;42.566;27.526;2023-02-16T08:41:39;102439.72;;;6.16;67.21
19508;BME280;40157;42.566;27.526;2023-02-16T08:43:40;102394.78;;;5.92;67.05
19508;BME280;40157;42.566;27.526;2023-02-16T08:45:47;102477.72;;;6.56;66.75
19508;BME280;40157;42.566;27.526;2023-02-16T08:47:47;102484.78;;;6.72;65.55
19508;BME280;40157;42.566;27.526;2023-02-16T08:49:48;102499.00;;;6.92;65.83
19508;BME280;40157;42.566;27.526;2023-02-16T08:51:52;102496.50;;;7.08;65.41
19508;BME280;40157;42.566;27.526;2023-02-16T08:53:54;102499.03;;;7.21;65.05
19508;BME280;40157;42.566;27.526;2023-02-16T08:55:57;102482.91;;;7.29;64.53
19508;BME280;40157;42.566;27.526;2023-02-16T08:57:57;102496.84;;;7.44;63.90
19508;BME280;40157;42.566;27.526;2023-02-16T08:59:59;102502.78;;;7.56;63.98
19508;BME280;40157;42.566;27.526;2023-02-16T09:02:18;102459.03;;;7.52;63.28
19508;BME280;40157;42.566;27.526;2023-02-16T09:04:19;102500.72;;;7.82;63.22
19508;BME280;40157;42.566;27.526;2023-02-16T09:06:21;102506.66;;;7.94;62.39
19508;BME280;40157;42.566;27.526;2023-02-16T09:08:21;102491.31;;;8.01;62.51
19508;BME280;40157;42.566;27.526;2023-02-16T09:10:22;102463.22;;;7.96;62.37
19508;BME280;40157;42.566;27.526;2023-02-16T09:12:22;102503.28;;;8.28;60.79
19508;BME280;40157;42.566;27.526;2023-02-16T09:14:23;102501.19;;;8.38;60.22
19508;BME280;40157;42.566;27.526;2023-02-16T09:16:24;102497.25;;;8.46;59.99
19508;BME280;40157;42.566;27.526;2023-02-16T09:18:27;102441.03;;;8.05;59.23
19508;BME280;40157;42.566;27.526;2023-02-16T09:20:27;102434.38;;;8.26;59.27
19508;BME280;40157;42.566;27.526;2023-02-16T09:22:28;102473.50;;;8.41;59.06
19508;BME280;40157;42.566;27.526;2023-02-16T09:24:29;102330.38;;;7.86;58.54
19508;BME280;40157;42.566;27.526;2023-02-16T09:26:34;102387.16;;;8.23;57.95
19508;BME280;40157;42.566;27.526;2023-02-16T09:28:38;102433.59;;;8.78;57.52
19508;BME280;40157;42.566;27.526;2023-02-16T09:30:39;102466.38;;;8.88;56.73
19508;BME280;40157;42.566;27.526;2023-02-16T09:32:40;102473.34;;;9.05;55.22
19508;BME280;40157;42.566;27.526;2023-02-16T09:34:41;102504.19;;;9.29;55.79
19508;BME280;40157;42.566;27.526;2023-02-16T09:36:44;102426.75;;;8.98;56.02
19508;BME280;40157;42.566;27.526;2023-02-16T09:38:46;102471.97;;;9.30;55.23
19508;BME280;40157;42.566;27.526;2023-02-16T09:40:48;102509.19;;;9.42;55.15
19508;BME280;40157;42.566;27.526;2023-02-16T09:42:58;102488.88;;;9.55;54.56
19508;BME280;40157;42.566;27.526;2023-02-16T09:45:14;102417.97;;;9.32;54.47
19508;BME280;40157;42.566;27.526;2023-02-16T09:47:23;102471.66;;;9.78;54.47
19508;BME280;40157;42.566;27.526;2023-02-16T09:49:30;102494.69;;;9.85;53.55
19508;BME280;40157;42.566;27.526;2023-02-16T09:51:38;102447.16;;;9.77;53.05
19508;BME280;40157;42.566;27.526;2023-02-16T09:53:45;102439.06;;;9.91;52.74
19508;BME280;40157;42.566;27.526;2023-02-16T09:58:19;102460.81;;;10.27;52.18
19508;BME280;40157;42.566;27.526;2023-02-16T10:02:54;102462.19;;;10.37;50.95
19508;BME280;40157;42.566;27.526;2023-02-16T10:05:18;102449.59;;;10.30;50.77
19508;BME280;40157;42.566;27.526;2023-02-16T10:09:35;102448.03;;;10.53;50.70
19508;BME280;40157;42.566;27.526;2023-02-16T10:12:17;102439.81;;;10.65;49.94
19508;BME280;40157;42.566;27.526;2023-02-16T10:14:39;102439.13;;;10.90;49.67
19508;BME280;40157;42.566;27.526;2023-02-16T10:16:49;102446.03;;;11.09;48.60
19508;BME280;40157;42.566;27.526;2023-02-16T10:18:52;102441.63;;;11.29;48.93
19508;BME280;40157;42.566;27.526;2023-02-16T10:20:57;102446.84;;;11.50;47.71
19508;BME280;40157;42.566;27.526;2023-02-16T10:24:03;102436.84;;;11.62;47.35
19508;BME280;40157;42.566;27.526;2023-02-16T10:28:57;102426.31;;;11.85;44.54
19508;BME280;40157;42.566;27.526;2023-02-16T10:33:16;102425.50;;;12.09;43.57
19508;BME280;40157;42.566;27.526;2023-02-16T10:35:48;102419.28;;;12.07;42.81
19508;BME280;40157;42.566;27.526;2023-02-16T10:40:35;102434.41;;;12.36;43.09
19508;BME280;40157;42.566;27.526;2023-02-16T10:43:06;102435.00;;;12.53;43.23
19508;BME280;40157;42.566;27.526;2023-02-16T10:45:39;102433.59;;;12.63;41.71
19508;BME280;40157;42.566;27.526;2023-02-16T10:47:44;102432.56;;;12.58;41.99
19508;BME280;40157;42.566;27.526;2023-02-16T10:49:45;102416.13;;;12.65;40.96
19508;BME280;40157;42.566;27.526;2023-02-16T10:51:49;102435.28;;;12.61;40.57
19508;BME280;40157;42.566;27.526;2023-02-16T10:53:54;102413.50;;;12.65;40.39
19508;BME280;40157;42.566;27.526;2023-02-16T10:55:56;102421.34;;;12.64;40.38
19508;BME280;40157;42.566;27.526;2023-02-16T10:57:59;102415.88;;;12.83;40.70
19508;BME280;40157;42.566;27.526;2023-02-16T11:00:11;102421.47;;;12.92;39.96
19508;BME280;40157;42.566;27.526;2023-02-16T11:02:23;102416.34;;;12.97;40.12
19508;BME280;40157;42.566;27.526;2023-02-16T11:04:45;102404.69;;;13.16;39.73
19508;BME280;40157;42.566;27.526;2023-02-16T11:07:04;102393.66;;;13.28;39.78
19508;BME280;40157;42.566;27.526;2023-02-16T11:09:05;102408.28;;;13.45;39.01
19508;BME280;40157;42.566;27.526;2023-02-16T11:11:08;102343.25;;;13.17;39.05
19508;BME280;40157;42.566;27.526;2023-02-16T11:13:30;102400.91;;;13.62;39.21
19508;BME280;40157;42.566;27.526;2023-02-16T11:15:33;102369.19;;;13.59;39.09
19508;BME280;40157;42.566;27.526;2023-02-16T11:18:09;102393.31;;;13.73;38.30
19508;BME280;40157;42.566;27.526;2023-02-16T11:22:35;102393.03;;;13.93;38.18
19508;BME280;40157;42.566;27.526;2023-02-16T11:24:38;102374.38;;;13.86;37.95
19508;BME280;40157;42.566;27.526;2023-02-16T11:26:39;102385.69;;;14.13;38.37
19508;BME280;40157;42.566;27.526;2023-02-16T11:28:42;102392.16;;;14.24;37.76